createdAt,value
2019-01-13T00:02:16.494Z,8.60
2019-01-13T00:04:44.283Z,5.20
2019-01-13T00:07:12.278Z,8.60
2019-01-13T00:09:40.656Z,7.40
2019-01-13T00:12:08.499Z,7.80
2019-01-13T00:15:07.387Z,4.60
2019-01-13T00:20:31.151Z,6.00
2019-01-13T00:22:58.779Z,8.20
2019-01-13T00:25:45.329Z,11.60
2019-01-13T00:31:20.510Z,9.20
2019-01-13T00:33:48.223Z,7.00
2019-01-13T00:36:34.775Z,9.20
2019-01-13T00:39:21.265Z,10.80
2019-01-13T00:42:07.810Z,9.60
2019-01-13T00:44:56.918Z,5.20
2019-01-13T00:47:43.358Z,9.40
2019-01-13T00:50:11.054Z,10.40
2019-01-13T00:52:57.533Z,7.80
2019-01-13T00:55:25.257Z,9.00
2019-01-13T00:58:11.737Z,3.80
2019-01-13T01:19:09.775Z,8.60
2019-01-13T01:21:56.320Z,9.00
2019-01-13T01:24:42.773Z,13.00
2019-01-13T01:27:10.551Z,9.20
2019-01-13T01:29:38.521Z,11.60
2019-01-13T01:32:06.295Z,14.60
2019-01-13T01:34:34.258Z,12.20
2019-01-13T01:37:03.512Z,9.00
2019-01-13T01:39:31.249Z,13.00
2019-01-13T01:41:58.881Z,13.00
2019-01-13T01:44:26.935Z,14.00
2019-01-13T01:47:13.382Z,12.40
2019-01-13T01:49:59.909Z,16.40
2019-01-13T01:52:27.534Z,15.00
2019-01-13T01:54:55.594Z,17.40
2019-01-13T01:57:23.237Z,15.00
2019-01-13T01:59:50.939Z,18.80
2019-01-13T02:02:37.494Z,16.20
2019-01-13T02:05:24.487Z,13.80
2019-01-13T02:08:10.961Z,17.20
2019-01-13T02:10:38.983Z,17.60
2019-01-13T02:13:06.952Z,15.20
2019-01-13T02:15:34.627Z,11.80
2019-01-13T02:18:21.152Z,21.20
2019-01-13T02:20:48.888Z,14.20
2019-01-13T02:23:35.392Z,16.00
2019-01-13T02:26:03.157Z,12.80
2019-01-13T02:28:30.815Z,8.40
2019-01-13T02:31:17.336Z,13.60
2019-01-13T02:33:45.073Z,16.20
2019-01-13T02:36:12.698Z,12.00
2019-01-13T02:38:59.495Z,14.60
2019-01-13T02:41:45.972Z,9.40
2019-01-13T02:44:32.515Z,16.80
2019-01-13T02:47:00.156Z,12.40
2019-01-13T02:49:47.090Z,12.80
2019-01-13T02:52:14.723Z,9.60
2019-01-13T02:54:42.449Z,10.20
2019-01-13T02:57:28.971Z,19.00
2019-01-13T02:59:56.626Z,10.40
2019-01-13T03:02:43.449Z,14.00
2019-01-13T03:05:11.113Z,15.40
2019-01-13T03:07:38.746Z,9.60
2019-01-13T03:10:06.489Z,10.40
2019-01-13T03:12:35.051Z,13.20
2019-01-13T03:15:02.764Z,13.00
2019-01-13T03:17:30.487Z,14.40
2019-01-13T03:19:58.140Z,10.20
2019-01-13T03:22:26.107Z,13.60
2019-01-13T03:25:12.623Z,9.20
2019-01-13T03:27:40.277Z,18.40
2019-01-13T03:30:26.771Z,10.00
2019-01-13T03:33:13.283Z,15.00
2019-01-13T03:36:00.006Z,12.00
2019-01-13T03:38:27.765Z,17.20
2019-01-13T03:40:55.914Z,9.60
2019-01-13T03:43:23.691Z,9.60
2019-01-13T03:46:10.183Z,14.20
2019-01-13T03:48:38.380Z,11.20
2019-01-13T03:51:05.998Z,5.40
2019-01-13T03:53:33.763Z,9.20
2019-01-13T03:56:20.305Z,11.60
2019-01-13T03:58:47.992Z,7.00
2019-01-13T04:01:34.476Z,12.40
2019-01-13T04:04:02.175Z,13.20
2019-01-13T04:06:29.856Z,15.60
2019-01-13T04:09:16.407Z,9.00
2019-01-13T04:11:44.056Z,12.80
2019-01-13T04:14:12.193Z,9.80
2019-01-13T04:16:58.638Z,8.20
2019-01-13T04:19:45.176Z,7.80
2019-01-13T04:22:12.955Z,8.60
2019-01-13T04:24:40.932Z,5.60
2019-01-13T04:27:09.041Z,6.20
2019-01-13T04:29:36.665Z,9.20
2019-01-13T04:32:04.371Z,4.80
2019-01-13T04:34:50.850Z,7.00
2019-01-13T04:37:18.560Z,4.60
2019-01-13T04:39:46.654Z,4.00
2019-01-13T04:42:33.129Z,2.80
2019-01-13T04:45:00.816Z,6.20
2019-01-13T04:47:47.292Z,5.80
2019-01-13T04:50:15.011Z,4.00
2019-01-13T04:52:42.733Z,3.80
2019-01-13T04:55:29.267Z,1.40
2019-01-13T04:57:56.956Z,4.60
2019-01-13T05:00:24.665Z,3.40
2019-01-13T05:03:11.106Z,5.20
2019-01-13T05:05:38.823Z,5.20
2019-01-13T05:08:25.608Z,4.00
2019-01-13T05:10:53.319Z,8.20
2019-01-13T05:13:40.084Z,4.40
2019-01-13T05:16:07.774Z,2.60
2019-01-13T05:18:35.489Z,7.40
2019-01-13T05:21:22.194Z,5.60
2019-01-13T05:23:49.926Z,6.60
2019-01-13T05:26:20.302Z,4.80
2019-01-13T05:28:48.290Z,3.40
2019-01-13T05:31:15.973Z,5.40
2019-01-13T05:33:43.700Z,7.00
2019-01-13T05:36:11.395Z,9.40
2019-01-13T05:38:39.576Z,6.60
2019-01-13T05:41:07.275Z,7.40
2019-01-13T05:43:35.033Z,7.80
2019-01-13T05:46:03.011Z,7.40
2019-01-13T05:48:49.558Z,6.40
2019-01-13T05:51:17.188Z,7.00
2019-01-13T05:54:03.701Z,7.80
2019-01-13T05:56:31.403Z,8.60
2019-01-13T05:59:17.904Z,4.40
2019-01-13T06:01:49.178Z,6.80
2019-01-13T06:04:33.668Z,4.80
2019-01-13T06:07:01.331Z,3.40
2019-01-13T06:09:29.047Z,6.20
2019-01-13T06:12:15.488Z,5.60
2019-01-13T06:14:43.174Z,9.60
2019-01-13T06:17:10.912Z,5.40
2019-01-13T06:19:57.844Z,4.00
2019-01-13T06:22:25.531Z,4.40
2019-01-13T06:24:53.153Z,3.80
2019-01-13T06:27:39.665Z,10.00
2019-01-13T06:30:26.154Z,9.00
2019-01-13T06:33:12.694Z,7.40
2019-01-13T06:35:40.366Z,3.00
2019-01-13T06:38:07.983Z,6.80
2019-01-13T06:40:36.101Z,6.60
2019-01-13T06:43:22.609Z,7.00
2019-01-13T06:46:09.523Z,4.00
2019-01-13T06:48:37.230Z,3.80
2019-01-13T06:51:04.855Z,3.20
2019-01-13T06:53:51.345Z,4.80
2019-01-13T06:56:18.968Z,3.20
2019-01-13T06:59:05.493Z,4.00
2019-01-13T07:01:33.192Z,2.60
2019-01-13T07:04:19.713Z,5.20
2019-01-13T07:06:47.358Z,2.20
2019-01-13T07:09:15.069Z,3.60
2019-01-13T07:11:43.101Z,1.40
2019-01-13T07:14:10.733Z,0.80
2019-01-13T07:16:38.363Z,3.00
2019-01-13T07:19:24.912Z,0.80
2019-01-13T07:22:11.445Z,1.00
2019-01-13T07:24:39.076Z,0.60
2019-01-13T07:27:25.598Z,1.00
2019-01-13T07:30:12.499Z,1.80
2019-01-13T07:32:40.187Z,1.00
2019-01-13T07:35:26.733Z,1.00
2019-01-13T07:37:54.462Z,0.80
2019-01-13T07:40:22.613Z,0.20
2019-01-13T07:43:09.109Z,0.60
2019-01-13T07:45:36.780Z,0.00
2019-01-13T07:48:04.455Z,0.00
2019-01-13T07:50:32.512Z,0.00
2019-01-13T07:53:00.127Z,0.20
2019-01-13T07:55:27.840Z,0.00
2019-01-13T07:57:57.236Z,1.00
2019-01-13T08:00:43.683Z,0.00
2019-01-13T08:03:30.210Z,1.00
2019-01-13T08:05:57.838Z,0.00
2019-01-13T08:08:25.540Z,0.00
2019-01-13T08:11:11.983Z,0.20
2019-01-13T08:13:39.692Z,1.00
2019-01-13T08:16:07.350Z,0.00
2019-01-13T08:18:35.356Z,0.00
2019-01-13T08:21:03.184Z,2.60
2019-01-13T08:23:30.978Z,0.40
2019-01-13T08:25:59.111Z,0.00
2019-01-13T08:28:26.799Z,0.00
2019-01-13T08:30:54.895Z,1.00
2019-01-13T08:33:41.286Z,2.20
2019-01-13T08:36:27.801Z,0.20
2019-01-13T08:39:14.281Z,1.00
2019-01-13T08:41:42.081Z,0.60
2019-01-13T08:44:28.562Z,0.20
2019-01-13T08:46:56.271Z,0.40
2019-01-13T08:49:38.122Z,0.80
2019-01-13T08:51:53.543Z,1.00
2019-01-13T08:54:40.095Z,0.00
2019-01-13T08:57:26.614Z,0.40
2019-01-13T08:59:54.332Z,2.20
2019-01-13T09:02:22.262Z,0.00
2019-01-13T09:04:49.963Z,1.00
2019-01-13T09:07:36.414Z,1.00
2019-01-13T09:10:22.932Z,1.00
2019-01-13T09:12:56.682Z,1.00
2019-01-13T09:15:39.155Z,0.80
2019-01-13T09:18:06.790Z,0.00
2019-01-13T09:20:34.937Z,2.60
2019-01-13T09:23:04.921Z,4.80
2019-01-13T09:25:32.605Z,1.00
2019-01-13T09:28:21.857Z,3.20
2019-01-13T09:30:49.560Z,2.60
2019-01-13T09:33:36.035Z,0.00
2019-01-13T09:36:03.745Z,1.00
2019-01-13T09:38:50.194Z,2.60
2019-01-13T09:41:18.002Z,1.00
2019-01-13T09:44:04.459Z,0.20
2019-01-13T09:46:51.006Z,1.00
2019-01-13T09:49:37.453Z,1.80
2019-01-13T09:52:05.322Z,3.20
2019-01-13T09:57:25.348Z,3.00
2019-01-13T09:59:53.314Z,3.20
2019-01-13T10:02:21.028Z,4.00
2019-01-13T10:05:09.872Z,6.25
2019-01-13T10:07:39.415Z,3.60
2019-01-13T10:10:10.631Z,3.75
2019-01-13T10:12:57.167Z,6.75
2019-01-13T10:18:34.601Z,4.00
2019-01-13T10:21:02.262Z,6.00
2019-01-13T10:26:23.974Z,5.60
2019-01-13T10:29:12.101Z,6.40
2019-01-13T10:31:40.089Z,4.00
2019-01-13T10:36:56.006Z,6.00
2019-01-13T10:39:23.634Z,9.60
2019-01-13T10:41:51.824Z,7.40
2019-01-13T10:44:38.296Z,6.40
2019-01-13T10:47:05.998Z,9.00
2019-01-13T10:49:52.471Z,8.20
2019-01-13T10:52:20.193Z,10.40
2019-01-13T10:54:49.592Z,10.80
2019-01-13T10:57:37.205Z,6.60
2019-01-13T11:00:04.831Z,6.00
2019-01-13T11:02:32.794Z,6.60
2019-01-13T11:05:00.455Z,6.00
2019-01-13T11:07:28.229Z,4.80
2019-01-13T11:10:14.822Z,6.20
2019-01-13T11:12:44.920Z,8.80
2019-01-13T11:15:21.490Z,9.20
2019-01-13T11:17:44.546Z,7.80
2019-01-13T11:20:12.168Z,6.40
2019-01-13T11:22:39.831Z,3.00
2019-01-13T11:25:26.360Z,6.50
2019-01-13T11:27:53.985Z,5.60
2019-01-13T11:30:21.717Z,7.40
2019-01-13T11:32:49.805Z,4.00
2019-01-13T11:35:19.094Z,6.00
2019-01-13T11:37:46.796Z,4.40
2019-01-13T11:40:17.374Z,5.80
2019-01-13T11:42:45.082Z,8.80
2019-01-13T11:45:12.856Z,3.80
2019-01-13T11:47:40.792Z,6.00
2019-01-13T11:50:10.285Z,6.00
2019-01-13T11:55:29.918Z,6.60
2019-01-13T11:57:57.593Z,6.20
2019-01-13T12:00:44.103Z,6.20
2019-01-13T12:03:16.953Z,0.80
2019-01-13T12:05:43.488Z,4.00
2019-01-13T12:11:16.378Z,1.40
2019-01-13T12:13:44.328Z,9.40
2019-01-13T12:16:45.459Z,2.20
2019-01-13T12:19:00.815Z,10.00
2019-01-13T12:24:35.318Z,2.20
2019-01-13T12:27:03.040Z,5.40
2019-01-13T12:29:31.061Z,2.20
2019-01-13T12:31:58.775Z,4.40
2019-01-13T12:37:19.630Z,3.00
2019-01-13T12:39:47.265Z,5.60
2019-01-13T12:42:33.794Z,3.80
2019-01-13T12:45:20.271Z,3.40
2019-01-13T12:47:48.310Z,4.00
2019-01-13T12:50:15.985Z,3.00
2019-01-13T12:52:43.654Z,7.00
2019-01-13T12:55:11.947Z,3.00
2019-01-13T12:57:39.591Z,4.00
2019-01-13T13:00:07.337Z,2.60
2019-01-13T13:02:35.426Z,3.20
2019-01-13T13:05:15.647Z,3.40
2019-01-13T13:07:32.407Z,3.80
2019-01-13T13:10:00.359Z,5.25
2019-01-13T13:12:28.324Z,2.60
2019-01-13T13:14:59.835Z,3.40
2019-01-13T13:20:14.301Z,6.00
2019-01-13T13:22:42.302Z,5.60
2019-01-13T13:25:10.009Z,4.00
2019-01-13T13:27:37.701Z,6.80
2019-01-13T13:30:05.752Z,6.80
2019-01-13T13:32:33.422Z,6.20
2019-01-13T13:35:01.112Z,4.40
2019-01-13T13:37:29.056Z,8.20
2019-01-13T13:39:56.749Z,3.80
2019-01-13T13:42:24.384Z,3.00
2019-01-13T13:44:52.448Z,7.00
2019-01-13T13:47:20.149Z,8.40
2019-01-13T13:49:47.824Z,7.60
2019-01-13T13:52:15.945Z,6.60
2019-01-13T13:54:44.148Z,3.00
2019-01-13T13:57:14.476Z,4.80
2019-01-13T14:00:00.926Z,1.40
2019-01-13T14:05:08.536Z,4.80
2019-01-13T14:07:37.314Z,3.00
2019-01-13T14:10:07.337Z,3.80
2019-01-13T14:12:53.787Z,4.40
2019-01-13T14:15:21.499Z,3.40
2019-01-13T14:17:49.181Z,3.20
2019-01-13T14:20:19.364Z,4.00
2019-01-13T14:22:47.377Z,6.00
2019-01-13T14:28:20.670Z,7.00
2019-01-13T14:30:48.289Z,3.00
2019-01-13T14:33:18.139Z,3.20
2019-01-13T14:36:04.594Z,1.00
2019-01-13T14:38:32.377Z,1.00
2019-01-13T14:41:00.002Z,3.00
2019-01-13T14:43:48.394Z,4.80
2019-01-13T14:46:31.366Z,2.20
2019-01-13T14:49:04.170Z,6.40
2019-01-13T14:51:50.687Z,7.00
2019-01-13T14:54:37.130Z,4.80
2019-01-13T14:57:04.813Z,2.20
2019-01-13T14:59:32.939Z,4.80
2019-01-13T15:02:00.663Z,4.80
2019-01-13T15:04:30.360Z,4.80
2019-01-13T15:07:16.876Z,4.80
2019-01-13T15:09:44.564Z,2.60
2019-01-13T15:12:12.295Z,3.80
2019-01-13T15:14:58.786Z,3.00
2019-01-13T15:17:26.560Z,3.00
2019-01-13T15:19:54.219Z,0.20
2019-01-13T15:22:22.292Z,5.60
2019-01-13T15:25:08.777Z,4.00
2019-01-13T15:27:55.300Z,4.20
2019-01-13T15:30:22.964Z,2.20
2019-01-13T15:33:09.461Z,6.00
2019-01-13T15:35:37.168Z,3.00
2019-01-13T15:38:04.885Z,1.40
2019-01-13T15:43:11.168Z,3.00
2019-01-13T15:45:38.960Z,7.40
2019-01-13T15:48:07.119Z,4.00
2019-01-13T15:50:53.591Z,7.00
2019-01-13T15:53:21.559Z,9.60
2019-01-13T15:55:49.208Z,6.80
2019-01-13T15:58:16.835Z,3.00
2019-01-13T16:00:44.883Z,5.60
2019-01-13T16:03:14.898Z,9.40
2019-01-13T16:05:42.579Z,8.60
2019-01-13T16:08:10.746Z,5.80
2019-01-13T16:10:38.824Z,8.20
2019-01-13T16:13:06.640Z,9.20
2019-01-13T16:18:39.541Z,10.00
2019-01-13T16:21:07.487Z,9.20
2019-01-13T16:23:35.137Z,4.80
2019-01-13T16:26:02.841Z,6.00
2019-01-13T16:28:39.835Z,9.00
2019-01-13T16:31:07.591Z,10.40
2019-01-13T16:33:47.732Z,9.40
2019-01-13T16:36:05.322Z,4.60
2019-01-13T16:38:32.990Z,6.80
2019-01-13T16:41:01.273Z,5.40
2019-01-13T16:43:31.270Z,7.40
2019-01-13T16:45:59.039Z,4.00
2019-01-13T16:48:27.167Z,7.40
2019-01-13T16:50:54.882Z,6.80
2019-01-13T16:53:41.778Z,4.80
2019-01-13T16:56:09.814Z,4.60
2019-01-13T16:58:37.453Z,9.00
2019-01-13T17:01:08.186Z,6.40
2019-01-13T17:03:48.507Z,8.20
2019-01-13T17:06:07.780Z,7.40
2019-01-13T17:11:28.457Z,7.00
2019-01-13T17:13:58.973Z,11.20
2019-01-13T17:16:26.716Z,6.00
2019-01-13T17:18:54.694Z,8.60
2019-01-13T17:21:41.221Z,3.20
2019-01-13T17:24:09.731Z,4.00
2019-01-13T17:26:37.495Z,2.20
2019-01-13T17:29:05.695Z,9.20
2019-01-13T17:31:33.619Z,4.40
2019-01-13T17:34:01.390Z,9.40
2019-01-13T17:36:42.769Z,8.20
2019-01-13T17:39:00.687Z,6.00
2019-01-13T17:41:28.449Z,4.40
2019-01-13T17:43:59.893Z,6.20
2019-01-13T17:46:46.393Z,12.40
2019-01-13T17:49:14.173Z,9.40
2019-01-13T17:51:44.932Z,4.00
2019-01-13T17:54:12.721Z,4.40
2019-01-13T17:56:40.353Z,2.20
2019-01-13T17:59:08.534Z,0.00
2019-01-13T18:01:36.192Z,0.00
2019-01-13T18:04:03.883Z,1.00
2019-01-13T18:06:32.304Z,1.00
2019-01-13T18:09:00.090Z,0.00
2019-01-13T18:11:27.743Z,0.00
2019-01-13T18:13:58.749Z,1.00
2019-01-13T18:16:26.466Z,0.40
2019-01-13T18:19:17.917Z,0.00
2019-01-13T18:21:45.621Z,0.00
2019-01-13T18:24:13.259Z,0.00
2019-01-13T18:27:00.081Z,0.00
2019-01-13T18:29:27.845Z,0.00
2019-01-13T18:32:14.386Z,0.80
2019-01-13T18:34:42.547Z,0.00
2019-01-13T18:37:10.637Z,1.00
2019-01-13T18:39:38.789Z,0.00
2019-01-13T18:42:06.530Z,1.00
2019-01-13T18:44:35.698Z,1.00
2019-01-13T18:47:03.431Z,0.00
2019-01-13T18:49:31.090Z,0.00
2019-01-13T18:52:00.742Z,0.00
2019-01-13T18:54:28.480Z,0.00
2019-01-13T18:56:56.185Z,1.00
2019-01-13T18:59:24.689Z,0.00
2019-01-13T19:01:52.383Z,1.00
2019-01-13T19:04:20.058Z,1.00
2019-01-13T19:06:48.086Z,0.60
2019-01-13T19:09:15.725Z,0.00
2019-01-13T19:12:07.765Z,0.20
2019-01-13T19:14:14.724Z,1.00
2019-01-13T19:16:42.451Z,3.40
2019-01-13T19:19:10.152Z,1.80
2019-01-13T19:24:26.339Z,2.20
2019-01-13T19:26:54.541Z,0.20
2019-01-13T19:29:22.184Z,0.00
2019-01-13T19:31:49.806Z,1.80
2019-01-13T19:34:17.948Z,0.00
2019-01-13T19:36:45.726Z,1.00
2019-01-13T19:39:13.378Z,1.80
2019-01-13T19:41:41.632Z,2.40
2019-01-13T19:44:09.495Z,2.80
2019-01-13T19:46:37.212Z,0.00
2019-01-13T19:49:23.682Z,3.20
2019-01-13T19:52:10.231Z,2.60
2019-01-13T19:54:38.139Z,0.40
2019-01-13T19:57:05.944Z,0.20
2019-01-13T19:59:33.619Z,4.00
2019-01-13T20:02:01.766Z,1.80
2019-01-13T20:04:29.403Z,2.20
2019-01-13T20:06:57.126Z,0.80
2019-01-13T20:09:25.600Z,1.00
2019-01-13T20:12:12.086Z,3.80
2019-01-13T20:14:40.169Z,0.60
2019-01-13T20:17:07.849Z,2.60
2019-01-13T20:19:35.872Z,2.40
2019-01-13T20:22:22.385Z,0.60
2019-01-13T20:24:50.093Z,3.00
2019-01-13T20:27:18.020Z,3.00
2019-01-13T20:29:45.844Z,0.80
2019-01-13T20:32:13.633Z,1.00
2019-01-13T20:34:44.144Z,0.20
2019-01-13T20:37:11.824Z,2.00
2019-01-13T20:39:39.481Z,1.00
2019-01-13T20:42:28.212Z,3.00
2019-01-13T20:45:16.667Z,1.00
2019-01-13T20:47:44.639Z,0.00
2019-01-13T20:50:12.375Z,1.80
2019-01-13T20:52:40.090Z,0.00
2019-01-13T20:55:08.241Z,1.40
2019-01-13T20:57:36.329Z,1.80
2019-01-13T21:00:05.964Z,1.00
2019-01-13T21:02:52.452Z,0.20
2019-01-13T21:05:26.606Z,0.60
2019-01-13T21:07:49.851Z,1.00
2019-01-13T21:10:36.405Z,0.00
2019-01-13T21:13:04.329Z,0.00
2019-01-13T21:15:31.986Z,0.20
2019-01-13T21:17:59.706Z,1.00
2019-01-13T21:20:47.361Z,0.00
2019-01-13T21:23:15.139Z,3.80
2019-01-13T21:25:43.089Z,0.00
2019-01-13T21:28:10.993Z,0.80
2019-01-13T21:30:38.692Z,1.40
2019-01-13T21:33:25.204Z,0.00
2019-01-13T21:35:52.826Z,0.80
2019-01-13T21:38:20.569Z,1.20
2019-01-13T21:41:07.052Z,0.00
2019-01-13T21:43:35.159Z,0.00
2019-01-13T21:46:05.835Z,0.00
2019-01-13T21:48:52.372Z,0.00
2019-01-13T21:51:20.117Z,1.00
2019-01-13T21:53:47.832Z,0.60
2019-01-13T21:56:15.863Z,1.00
2019-01-13T21:59:02.329Z,1.00
2019-01-13T22:01:48.861Z,0.40
2019-01-13T22:04:16.849Z,2.60
2019-01-13T22:07:03.350Z,0.00
2019-01-13T22:09:42.919Z,0.20
2019-01-13T22:12:00.387Z,0.40
2019-01-13T22:14:46.822Z,0.80
2019-01-13T22:17:14.538Z,0.00
2019-01-13T22:19:43.083Z,0.00
2019-01-13T22:22:10.738Z,0.00
2019-01-13T22:24:38.455Z,0.00
2019-01-13T22:27:06.554Z,0.80
2019-01-13T22:29:34.235Z,1.40
2019-01-13T22:32:02.717Z,0.60
2019-01-13T22:34:49.170Z,0.00
2019-01-13T22:37:16.870Z,0.00
2019-01-13T22:40:03.319Z,0.00
2019-01-13T22:42:31.050Z,0.80
2019-01-13T22:45:17.579Z,0.00
2019-01-13T22:48:04.100Z,0.00
2019-01-13T22:50:32.014Z,0.00
2019-01-13T22:52:59.728Z,0.00
2019-01-13T22:55:27.465Z,0.00
2019-01-13T22:58:13.903Z,0.00
2019-01-13T23:01:00.440Z,0.00
2019-01-13T23:03:46.973Z,0.00
2019-01-13T23:06:33.429Z,0.60
2019-01-13T23:09:19.931Z,0.00
2019-01-13T23:11:49.821Z,0.00
2019-01-13T23:14:19.420Z,0.00
2019-01-13T23:16:47.128Z,1.20
2019-01-13T23:19:34.131Z,0.00
2019-01-13T23:22:01.781Z,0.00
2019-01-13T23:24:29.432Z,0.00
2019-01-13T23:27:09.776Z,1.00
2019-01-13T23:29:26.456Z,0.40
2019-01-13T23:31:54.196Z,3.00
2019-01-13T23:34:21.888Z,0.00
2019-01-13T23:36:49.952Z,0.00
2019-01-13T23:39:18.012Z,0.00
2019-01-13T23:41:45.730Z,0.00
2019-01-13T23:44:13.417Z,0.00
2019-01-13T23:46:59.951Z,0.00
2019-01-13T23:49:46.473Z,0.00
2019-01-13T23:52:32.969Z,0.00
2019-01-13T23:55:00.703Z,1.00
2019-01-13T23:57:47.151Z,0.00
